createdAt,value
2019-03-12T00:01:14.254Z,2.95
2019-03-12T00:04:20.111Z,2.85
2019-03-12T00:07:25.674Z,2.76
2019-03-12T00:10:30.579Z,2.62
2019-03-12T00:13:35.596Z,2.47
2019-03-12T00:16:40.251Z,2.36
2019-03-12T00:19:44.848Z,2.29
2019-03-12T00:22:51.150Z,2.23
2019-03-12T00:25:55.493Z,2.25
2019-03-12T00:28:59.932Z,2.29
2019-03-12T00:32:06.232Z,2.31
2019-03-12T00:35:12.644Z,2.39
2019-03-12T00:38:17.232Z,2.50
2019-03-12T00:41:21.997Z,2.55
2019-03-12T00:44:26.534Z,2.48
2019-03-12T00:47:31.018Z,2.40
2019-03-12T00:50:35.509Z,2.35
2019-03-12T00:53:39.930Z,2.30
2019-03-12T00:56:44.646Z,2.33
2019-03-12T00:59:49.018Z,2.33
2019-03-12T01:02:53.510Z,2.39
2019-03-12T01:05:58.059Z,2.39
2019-03-12T01:09:02.727Z,2.40
2019-03-12T01:12:07.285Z,2.48
2019-03-12T01:15:12.770Z,2.55
2019-03-12T01:18:17.178Z,2.61
2019-03-12T01:21:21.559Z,2.70
2019-03-12T01:24:25.931Z,2.79
2019-03-12T01:27:32.340Z,2.78
2019-03-12T01:30:36.724Z,2.79
2019-03-12T01:33:41.603Z,2.89
2019-03-12T01:36:46.051Z,3.05
2019-03-12T01:39:50.564Z,3.07
2019-03-12T01:42:55.118Z,3.00
2019-03-12T01:45:59.495Z,2.95
2019-03-12T01:49:03.915Z,2.93
2019-03-12T01:52:08.356Z,2.93
2019-03-12T01:55:12.783Z,2.81
2019-03-12T01:58:18.813Z,2.76
2019-03-12T02:01:23.360Z,2.80
2019-03-12T02:04:32.599Z,2.71
2019-03-12T02:07:37.063Z,2.75
2019-03-12T02:10:41.487Z,2.80
2019-03-12T02:13:45.928Z,2.80
2019-03-12T02:16:50.466Z,2.86
2019-03-12T02:19:54.914Z,2.74
2019-03-12T02:22:59.317Z,2.56
2019-03-12T02:26:03.930Z,2.52
2019-03-12T02:29:08.595Z,2.49
2019-03-12T02:32:13.044Z,2.39
2019-03-12T02:35:17.594Z,2.36
2019-03-12T02:38:22.354Z,2.39
2019-03-12T02:41:28.235Z,2.34
2019-03-12T02:44:32.798Z,2.41
2019-03-12T02:47:37.603Z,2.41
2019-03-12T02:50:48.006Z,2.52
2019-03-12T02:53:52.344Z,2.55
2019-03-12T02:56:56.893Z,2.48
2019-03-12T03:00:01.624Z,2.47
2019-03-12T03:03:06.023Z,2.47
2019-03-12T03:06:25.163Z,2.43
2019-03-12T03:09:29.510Z,2.42
2019-03-12T03:12:34.093Z,2.45
2019-03-12T03:15:42.826Z,2.48
2019-03-12T03:18:47.309Z,2.50
2019-03-12T03:21:51.878Z,2.57
2019-03-12T03:25:02.278Z,2.59
2019-03-12T03:28:06.805Z,2.64
2019-03-12T03:31:14.456Z,2.53
2019-03-12T03:34:18.862Z,2.53
2019-03-12T03:37:23.350Z,2.47
2019-03-12T03:40:27.882Z,2.49
2019-03-12T03:43:32.628Z,2.50
2019-03-12T03:46:36.998Z,2.55
2019-03-12T03:49:41.348Z,2.60
2019-03-12T03:52:54.933Z,2.48
2019-03-12T03:55:59.332Z,2.51
2019-03-12T03:59:03.962Z,2.47
2019-03-12T04:02:11.085Z,2.48
2019-03-12T04:05:18.421Z,2.43
2019-03-12T04:08:23.317Z,2.44
2019-03-12T04:11:27.719Z,2.51
2019-03-12T04:14:32.115Z,2.57
2019-03-12T04:17:36.629Z,2.59
2019-03-12T04:20:41.188Z,2.47
2019-03-12T04:23:45.697Z,2.45
2019-03-12T04:26:52.215Z,2.39
2019-03-12T04:29:56.556Z,2.36
2019-03-12T04:33:01.279Z,2.40
2019-03-12T04:36:05.892Z,2.49
2019-03-12T04:39:10.517Z,2.43
2019-03-12T04:42:15.013Z,2.43
2019-03-12T04:45:19.771Z,2.40
2019-03-12T04:48:24.202Z,2.37
2019-03-12T04:51:28.819Z,2.38
2019-03-12T04:54:33.299Z,2.31
2019-03-12T04:57:37.781Z,2.31
2019-03-12T05:00:42.345Z,2.28
2019-03-12T05:03:46.823Z,2.21
2019-03-12T05:06:53.089Z,2.17
2019-03-12T05:10:15.627Z,2.04
2019-03-12T05:13:19.989Z,2.02
2019-03-12T05:16:24.699Z,2.03
2019-03-12T05:19:29.888Z,2.05
2019-03-12T05:22:34.457Z,2.17
2019-03-12T05:25:39.071Z,2.22
2019-03-12T05:28:47.798Z,2.23
2019-03-12T05:31:52.542Z,2.25
2019-03-12T05:34:59.648Z,2.24
2019-03-12T05:38:08.331Z,2.34
2019-03-12T05:41:15.550Z,2.34
2019-03-12T05:44:25.982Z,2.28
2019-03-12T05:47:30.480Z,2.29
2019-03-12T05:50:35.055Z,2.35
2019-03-12T05:53:47.752Z,2.31
2019-03-12T05:56:57.996Z,2.32
2019-03-12T06:00:02.426Z,2.38
2019-03-12T06:03:07.066Z,2.42
2019-03-12T06:06:11.606Z,2.35
2019-03-12T06:09:16.081Z,2.45
2019-03-12T06:12:20.539Z,2.51
2019-03-12T06:15:24.814Z,2.51
2019-03-12T06:18:29.182Z,2.61
2019-03-12T06:21:33.710Z,2.75
2019-03-12T06:24:38.002Z,2.79
2019-03-12T06:27:42.497Z,2.86
2019-03-12T06:31:15.060Z,2.95
2019-03-12T06:34:41.458Z,3.05
2019-03-12T06:38:10.706Z,3.19
2019-03-12T06:41:33.116Z,3.44
2019-03-12T06:44:59.262Z,3.56
2019-03-12T06:48:21.769Z,3.61
2019-03-12T06:52:03.404Z,3.80
2019-03-12T06:55:27.003Z,3.91
2019-03-12T06:58:53.210Z,3.95
2019-03-12T07:02:13.213Z,4.08
2019-03-12T07:05:35.153Z,4.09
2019-03-12T07:08:52.126Z,4.14
2019-03-12T07:12:00.333Z,4.03
2019-03-12T07:15:27.216Z,4.11
2019-03-12T07:18:59.667Z,4.05
2019-03-12T07:22:31.953Z,4.13
2019-03-12T07:26:01.369Z,4.06
2019-03-12T07:29:23.602Z,4.22
2019-03-12T07:32:45.599Z,4.26
2019-03-12T07:36:04.766Z,4.19
2019-03-12T07:39:28.370Z,4.39
2019-03-12T07:42:37.841Z,4.45
2019-03-12T07:46:13.572Z,4.31
2019-03-12T07:49:30.265Z,4.33
2019-03-12T07:52:56.601Z,4.30
2019-03-12T07:56:13.310Z,4.35
2019-03-12T07:59:48.962Z,4.49
2019-03-12T08:03:11.004Z,4.59
2019-03-12T08:06:46.628Z,4.65
2019-03-12T08:10:01.771Z,4.67
2019-03-12T08:13:30.946Z,4.88
2019-03-12T08:16:53.568Z,5.07
2019-03-12T08:20:23.286Z,5.15
2019-03-12T08:23:36.349Z,5.28
2019-03-12T08:26:52.378Z,5.30
2019-03-12T08:30:18.034Z,5.23
2019-03-12T08:33:35.280Z,5.27
2019-03-12T08:36:51.408Z,5.24
2019-03-12T08:40:17.759Z,5.31
2019-03-12T08:43:41.958Z,5.25
2019-03-12T08:47:13.376Z,5.31
2019-03-12T08:50:44.004Z,5.36
2019-03-12T08:54:25.745Z,5.36
2019-03-12T08:57:53.633Z,5.27
2019-03-12T09:01:09.385Z,5.38
2019-03-12T09:04:36.529Z,5.21
2019-03-12T09:08:06.456Z,5.44
2019-03-12T09:11:38.454Z,5.29
2019-03-12T09:15:20.282Z,5.46
2019-03-12T09:18:43.589Z,5.36
2019-03-12T09:22:06.897Z,5.38
2019-03-12T09:25:27.219Z,5.49
2019-03-12T09:28:40.790Z,5.47
2019-03-12T09:31:56.701Z,5.49
2019-03-12T09:35:08.410Z,5.56
2019-03-12T09:38:40.224Z,5.56
2019-03-12T09:42:00.709Z,5.59
2019-03-12T09:45:23.743Z,5.65
2019-03-12T09:48:43.943Z,5.79
2019-03-12T09:52:00.298Z,5.81
2019-03-12T09:55:20.883Z,5.89
2019-03-12T09:58:47.662Z,5.99
2019-03-12T10:02:16.897Z,6.04
2019-03-12T10:05:44.211Z,6.02
2019-03-12T10:09:06.524Z,5.98
2019-03-12T10:12:29.787Z,5.93
2019-03-12T10:15:58.970Z,6.03
2019-03-12T10:19:28.489Z,6.11
2019-03-12T10:23:04.645Z,6.07
2019-03-12T10:26:24.591Z,6.08
2019-03-12T10:29:44.788Z,5.96
2019-03-12T10:33:08.099Z,6.01
2019-03-12T10:36:19.362Z,6.02
2019-03-12T10:40:18.885Z,6.13
2019-03-12T10:43:35.659Z,5.95
2019-03-12T10:46:44.387Z,6.00
2019-03-12T10:49:48.665Z,5.81
2019-03-12T10:52:52.949Z,5.95
2019-03-12T10:55:57.331Z,5.82
2019-03-12T10:59:01.660Z,5.69
2019-03-12T11:02:06.135Z,5.78
2019-03-12T11:05:13.651Z,5.56
2019-03-12T11:08:18.158Z,5.60
2019-03-12T11:11:22.736Z,5.67
2019-03-12T11:14:27.126Z,5.69
2019-03-12T11:17:31.705Z,5.75
2019-03-12T11:20:37.786Z,5.71
2019-03-12T11:23:42.205Z,5.59
2019-03-12T11:26:46.823Z,5.64
2019-03-12T11:29:51.474Z,5.54
2019-03-12T11:32:55.827Z,5.56
2019-03-12T11:36:01.941Z,5.45
2019-03-12T11:39:10.055Z,5.47
2019-03-12T11:42:15.157Z,5.19
2019-03-12T11:45:25.751Z,5.06
2019-03-12T11:48:26.005Z,5.05
2019-03-12T11:51:30.341Z,5.14
2019-03-12T11:54:34.599Z,5.12
2019-03-12T11:57:38.865Z,5.29
2019-03-12T12:00:48.637Z,5.27
2019-03-12T12:03:52.929Z,5.29
2019-03-12T12:06:57.470Z,5.24
2019-03-12T12:10:02.385Z,5.04
2019-03-12T12:13:07.130Z,5.08
2019-03-12T12:16:14.796Z,5.18
2019-03-12T12:19:28.338Z,5.12
2019-03-12T12:22:32.908Z,5.23
2019-03-12T12:25:37.267Z,5.12
2019-03-12T12:28:41.709Z,5.21
2019-03-12T12:31:47.499Z,5.25
2019-03-12T12:34:52.217Z,5.19
2019-03-12T12:37:56.803Z,5.26
2019-03-12T12:41:01.203Z,5.12
2019-03-12T12:44:07.957Z,5.11
2019-03-12T12:47:12.041Z,5.40
2019-03-12T12:50:17.113Z,5.50
2019-03-12T12:53:21.733Z,5.50
2019-03-12T12:56:26.159Z,5.46
2019-03-12T12:59:30.946Z,5.33
2019-03-12T13:02:35.653Z,5.43
2019-03-12T13:05:40.099Z,5.39
2019-03-12T13:08:44.576Z,5.36
2019-03-12T13:11:49.137Z,5.32
2019-03-12T13:14:54.446Z,5.41
2019-03-12T13:17:59.403Z,5.32
2019-03-12T13:21:03.944Z,5.36
2019-03-12T13:24:08.296Z,5.21
2019-03-12T13:27:12.694Z,5.21
2019-03-12T13:30:18.659Z,5.24
2019-03-12T13:33:23.311Z,5.19
2019-03-12T13:36:27.975Z,5.25
2019-03-12T13:39:34.639Z,5.34
2019-03-12T13:42:39.420Z,5.25
2019-03-12T13:45:47.356Z,5.30
2019-03-12T13:48:51.923Z,5.38
2019-03-12T13:51:56.412Z,5.36
2019-03-12T13:55:02.543Z,5.23
2019-03-12T13:58:07.411Z,5.29
2019-03-12T14:01:12.044Z,5.31
2019-03-12T14:04:16.430Z,5.31
2019-03-12T14:07:22.539Z,5.35
2019-03-12T14:10:26.879Z,5.25
2019-03-12T14:13:31.369Z,5.26
2019-03-12T14:16:35.775Z,5.20
2019-03-12T14:19:41.796Z,5.24
2019-03-12T14:22:46.302Z,5.28
2019-03-12T14:25:53.699Z,5.28
2019-03-12T14:28:58.052Z,5.37
2019-03-12T14:32:02.522Z,5.35
2019-03-12T14:35:07.550Z,5.37
2019-03-12T14:38:12.520Z,5.28
2019-03-12T14:41:16.899Z,5.37
2019-03-12T14:44:21.673Z,5.49
2019-03-12T14:47:29.371Z,5.57
2019-03-12T14:50:33.720Z,5.46
2019-03-12T14:53:38.318Z,5.52
2019-03-12T14:56:42.745Z,5.65
2019-03-12T14:59:47.157Z,5.67
2019-03-12T15:02:52.049Z,5.71
2019-03-12T15:05:56.474Z,5.54
2019-03-12T15:09:00.806Z,5.64
2019-03-12T15:12:06.857Z,5.73
2019-03-12T15:15:11.739Z,5.63
2019-03-12T15:18:16.150Z,5.82
2019-03-12T15:21:20.546Z,5.73
2019-03-12T15:24:25.227Z,5.87
2019-03-12T15:27:29.727Z,5.79
2019-03-12T15:30:34.257Z,5.89
2019-03-12T15:33:38.634Z,5.77
2019-03-12T15:36:45.750Z,5.66
2019-03-12T15:39:50.117Z,5.87
2019-03-12T15:42:54.589Z,5.70
2019-03-12T15:45:59.145Z,5.81
2019-03-12T15:49:03.558Z,5.64
2019-03-12T15:52:08.248Z,5.70
2019-03-12T15:55:13.477Z,5.77
2019-03-12T15:58:17.847Z,5.60
2019-03-12T16:01:22.700Z,5.53
2019-03-12T16:04:27.172Z,5.56
2019-03-12T16:07:31.737Z,5.64
2019-03-12T16:10:36.426Z,5.64
2019-03-12T16:13:43.089Z,5.70
2019-03-12T16:16:48.519Z,5.72
2019-03-12T16:19:52.973Z,5.68
2019-03-12T16:23:01.205Z,5.75
2019-03-12T16:26:05.619Z,5.77
2019-03-12T16:29:10.385Z,5.76
2019-03-12T16:32:15.117Z,5.87
2019-03-12T16:35:19.519Z,5.87
2019-03-12T16:38:27.156Z,5.94
2019-03-12T16:41:31.464Z,6.04
2019-03-12T16:44:42.080Z,6.04
2019-03-12T16:48:17.314Z,6.00
2019-03-12T16:51:21.940Z,5.98
2019-03-12T16:54:26.525Z,6.00
2019-03-12T16:57:35.502Z,5.96
2019-03-12T17:00:43.526Z,6.06
2019-03-12T17:03:48.056Z,6.02
2019-03-12T17:06:52.513Z,5.97
2019-03-12T17:09:57.009Z,5.94
2019-03-12T17:13:02.696Z,5.94
2019-03-12T17:16:07.329Z,5.97
2019-03-12T17:19:11.833Z,5.88
2019-03-12T17:22:18.114Z,5.84
2019-03-12T17:25:22.531Z,5.90
2019-03-12T17:28:27.021Z,6.01
2019-03-12T17:31:31.518Z,5.98
2019-03-12T17:34:37.390Z,5.96
2019-03-12T17:37:41.912Z,6.00
2019-03-12T17:40:46.465Z,6.07
2019-03-12T17:43:50.986Z,6.03
2019-03-12T17:46:55.338Z,5.98
2019-03-12T17:49:59.962Z,6.10
2019-03-12T17:53:16.883Z,5.99
2019-03-12T17:56:21.352Z,5.96
2019-03-12T17:59:25.940Z,5.95
2019-03-12T18:02:42.130Z,5.92
2019-03-12T18:05:36.984Z,5.96
2019-03-12T18:08:41.401Z,5.94
2019-03-12T18:11:46.057Z,6.00
2019-03-12T18:14:56.597Z,5.97
2019-03-12T18:18:02.766Z,5.96
2019-03-12T18:21:09.017Z,5.88
2019-03-12T18:24:13.581Z,5.83
2019-03-12T18:27:17.982Z,5.91
2019-03-12T18:30:26.133Z,5.99
2019-03-12T18:33:33.312Z,5.94
2019-03-12T18:36:37.854Z,5.84
2019-03-12T18:39:42.298Z,5.81
2019-03-12T18:42:47.030Z,5.85
2019-03-12T18:45:51.434Z,5.94
2019-03-12T18:48:57.845Z,5.84
2019-03-12T18:52:02.449Z,5.83
2019-03-12T18:55:07.954Z,5.93
2019-03-12T18:58:13.223Z,5.91
2019-03-12T19:01:32.199Z,5.94
2019-03-12T19:04:36.771Z,5.90
2019-03-12T19:07:42.155Z,6.02
2019-03-12T19:10:46.545Z,6.12
2019-03-12T19:13:51.130Z,6.05
2019-03-12T19:16:55.804Z,5.97
2019-03-12T19:20:04.854Z,6.10
2019-03-12T19:23:12.224Z,6.00
2019-03-12T19:26:16.972Z,5.91
2019-03-12T19:29:21.893Z,5.98
2019-03-12T19:32:42.691Z,5.92
2019-03-12T19:35:47.788Z,5.84
2019-03-12T19:38:52.461Z,5.85
2019-03-12T19:41:57.081Z,5.90
2019-03-12T19:45:04.956Z,5.84
2019-03-12T19:48:09.875Z,5.89
2019-03-12T19:51:14.989Z,5.79
2019-03-12T19:54:20.189Z,5.90
2019-03-12T19:57:27.028Z,5.83
2019-03-12T20:00:32.218Z,5.69
2019-03-12T20:03:37.206Z,5.74
2019-03-12T20:06:45.133Z,5.73
2019-03-12T20:10:10.991Z,5.63
2019-03-12T20:14:01.533Z,5.67
2019-03-12T20:17:45.858Z,5.66
2019-03-12T20:21:26.230Z,5.68
2019-03-12T20:25:14.393Z,5.56
2019-03-12T20:28:53.589Z,5.50
2019-03-12T20:32:32.638Z,5.54
2019-03-12T20:36:29.477Z,5.46
2019-03-12T20:40:12.201Z,5.54
2019-03-12T20:43:56.906Z,5.45
2019-03-12T20:47:47.704Z,5.46
2019-03-12T20:51:29.162Z,5.64
2019-03-12T20:55:29.348Z,5.49
2019-03-12T20:59:13.731Z,5.46
2019-03-12T21:03:12.722Z,5.50
2019-03-12T21:07:13.919Z,5.47
2019-03-12T21:11:07.414Z,5.53
2019-03-12T21:14:41.542Z,5.39
2019-03-12T21:18:22.610Z,5.46
2019-03-12T21:22:25.816Z,5.39
2019-03-12T21:26:05.182Z,5.28
2019-03-12T21:29:48.801Z,5.41
2019-03-12T21:32:53.631Z,5.26
2019-03-12T21:35:58.405Z,5.22
2019-03-12T21:39:03.554Z,5.32
2019-03-12T21:42:08.873Z,5.34
2019-03-12T21:45:14.219Z,5.45
2019-03-12T21:48:18.758Z,5.40
2019-03-12T21:51:26.031Z,5.42
2019-03-12T21:54:31.002Z,5.45
2019-03-12T21:57:35.447Z,5.43
2019-03-12T22:00:39.965Z,5.48
2019-03-12T22:03:45.636Z,5.40
2019-03-12T22:06:50.149Z,5.41
2019-03-12T22:09:54.598Z,5.41
2019-03-12T22:13:05.342Z,5.48
2019-03-12T22:16:05.555Z,5.44
2019-03-12T22:19:09.912Z,5.43
2019-03-12T22:22:23.400Z,5.40
2019-03-12T22:25:27.886Z,5.25
2019-03-12T22:28:32.227Z,5.36
2019-03-12T22:31:36.589Z,5.28
2019-03-12T22:34:41.115Z,5.30
2019-03-12T22:37:45.423Z,5.20
2019-03-12T22:40:51.446Z,5.11
2019-03-12T22:43:55.816Z,5.11
2019-03-12T22:47:00.176Z,5.24
2019-03-12T22:50:04.573Z,5.25
2019-03-12T22:53:09.691Z,5.35
2019-03-12T22:56:14.113Z,5.17
2019-03-12T22:59:18.949Z,5.23
2019-03-12T23:02:23.377Z,5.13
2019-03-12T23:05:29.797Z,5.17
2019-03-12T23:08:41.441Z,5.30
2019-03-12T23:11:59.108Z,5.24
2019-03-12T23:15:04.222Z,5.21
2019-03-12T23:18:11.096Z,5.34
2019-03-12T23:21:17.700Z,5.30
2019-03-12T23:24:24.387Z,5.35
2019-03-12T23:27:30.796Z,5.36
2019-03-12T23:30:53.431Z,5.48
2019-03-12T23:34:01.520Z,5.47
2019-03-12T23:37:08.368Z,5.46
2019-03-12T23:40:16.018Z,5.45
2019-03-12T23:43:22.764Z,5.59
2019-03-12T23:46:29.191Z,5.12
2019-03-12T23:49:36.390Z,4.90
2019-03-12T23:52:43.368Z,4.73
2019-03-12T23:55:50.295Z,4.53
2019-03-12T23:58:56.598Z,4.43
